createdAt,value
2019-05-17T00:00:37.567Z,14.20
2019-05-17T00:03:07.299Z,14.26
2019-05-17T00:05:37.572Z,14.26
2019-05-17T00:08:07.912Z,14.25
2019-05-17T00:10:37.819Z,14.26
2019-05-17T00:13:11.751Z,14.23
2019-05-17T00:15:38.649Z,14.22
2019-05-17T00:18:08.022Z,14.20
2019-05-17T00:20:37.753Z,14.16
2019-05-17T00:23:07.355Z,14.12
2019-05-17T00:25:37.135Z,14.09
2019-05-17T00:28:07.446Z,14.05
2019-05-17T00:30:37.528Z,13.95
2019-05-17T00:33:07.822Z,13.90
2019-05-17T00:35:37.850Z,13.90
2019-05-17T00:38:07.504Z,13.80
2019-05-17T00:40:36.919Z,13.81
2019-05-17T00:43:06.881Z,13.80
2019-05-17T00:45:37.626Z,13.81
2019-05-17T00:48:07.397Z,13.79
2019-05-17T00:50:37.911Z,13.81
2019-05-17T00:53:07.682Z,13.75
2019-05-17T00:55:37.120Z,13.68
2019-05-17T00:58:06.964Z,13.64
2019-05-17T01:00:37.580Z,13.61
2019-05-17T01:03:07.438Z,13.58
2019-05-17T01:05:37.141Z,13.55
2019-05-17T01:08:07.263Z,13.47
2019-05-17T01:10:37.165Z,13.34
2019-05-17T01:13:07.061Z,13.38
2019-05-17T01:15:37.134Z,13.43
2019-05-17T01:18:07.368Z,13.44
2019-05-17T01:20:37.295Z,13.42
2019-05-17T01:23:07.653Z,13.42
2019-05-17T01:25:37.735Z,13.42
2019-05-17T01:28:07.887Z,13.42
2019-05-17T01:30:37.751Z,13.40
2019-05-17T01:33:07.150Z,13.32
2019-05-17T01:35:37.401Z,13.36
2019-05-17T01:38:07.573Z,13.34
2019-05-17T01:40:37.510Z,13.31
2019-05-17T01:43:07.956Z,13.28
2019-05-17T01:45:37.643Z,13.26
2019-05-17T01:48:07.520Z,13.25
2019-05-17T01:50:37.518Z,13.18
2019-05-17T01:53:07.558Z,13.17
2019-05-17T01:55:37.660Z,13.16
2019-05-17T01:58:07.640Z,13.12
2019-05-17T02:00:37.778Z,13.07
2019-05-17T02:03:07.525Z,13.09
2019-05-17T02:05:37.445Z,13.08
2019-05-17T02:08:07.116Z,13.07
2019-05-17T02:10:37.536Z,12.98
2019-05-17T02:13:07.446Z,12.96
2019-05-17T02:15:37.839Z,12.92
2019-05-17T02:18:07.535Z,12.96
2019-05-17T02:20:37.543Z,13.00
2019-05-17T02:23:07.575Z,13.06
2019-05-17T02:25:37.278Z,13.03
2019-05-17T02:28:06.632Z,12.86
2019-05-17T02:30:36.175Z,12.92
2019-05-17T02:33:05.856Z,12.90
2019-05-17T02:35:35.293Z,12.92
2019-05-17T02:38:04.653Z,12.90
2019-05-17T02:40:34.455Z,12.91
2019-05-17T02:43:03.951Z,12.89
2019-05-17T02:45:33.488Z,12.87
2019-05-17T02:48:04.057Z,12.94
2019-05-17T02:50:33.694Z,12.90
2019-05-17T02:53:04.849Z,12.92
2019-05-17T02:55:34.437Z,12.87
2019-05-17T02:58:03.890Z,12.91
2019-05-17T03:00:34.312Z,12.94
2019-05-17T03:03:04.091Z,12.92
2019-05-17T03:05:34.131Z,12.95
2019-05-17T03:08:04.587Z,12.83
2019-05-17T03:10:34.228Z,12.81
2019-05-17T03:13:04.330Z,12.77
2019-05-17T03:15:33.969Z,12.81
2019-05-17T03:18:04.082Z,12.81
2019-05-17T03:20:33.737Z,12.76
2019-05-17T03:23:04.085Z,12.68
2019-05-17T03:25:34.010Z,12.64
2019-05-17T03:28:03.972Z,12.60
2019-05-17T03:30:36.455Z,12.71
2019-05-17T03:33:07.094Z,12.82
2019-05-17T03:35:38.554Z,13.14
2019-05-17T03:38:06.909Z,13.39
2019-05-17T03:41:03.578Z,13.61
2019-05-17T03:43:07.443Z,13.66
2019-05-17T03:45:36.872Z,13.92
2019-05-17T03:48:06.330Z,14.17
2019-05-17T03:50:35.758Z,14.38
2019-05-17T03:53:05.189Z,14.75
2019-05-17T03:55:34.604Z,15.03
2019-05-17T03:58:04.048Z,15.41
2019-05-17T04:00:35.328Z,15.66
2019-05-17T04:03:04.651Z,15.58
2019-05-17T04:05:34.009Z,15.73
2019-05-17T04:08:03.973Z,15.88
2019-05-17T04:10:34.004Z,15.75
2019-05-17T04:13:04.417Z,15.62
2019-05-17T04:15:34.156Z,15.46
2019-05-17T04:18:04.528Z,15.20
2019-05-17T04:20:35.603Z,15.12
2019-05-17T04:23:05.066Z,15.19
2019-05-17T04:25:38.538Z,15.11
2019-05-17T04:28:05.688Z,15.30
2019-05-17T04:30:35.125Z,15.39
2019-05-17T04:33:04.686Z,15.53
2019-05-17T04:35:34.164Z,15.83
2019-05-17T04:38:04.443Z,15.82
2019-05-17T04:40:34.405Z,15.88
2019-05-17T04:43:03.974Z,16.11
2019-05-17T04:45:33.917Z,15.68
2019-05-17T04:48:04.215Z,16.13
2019-05-17T04:50:34.597Z,16.27
2019-05-17T04:53:04.077Z,16.45
2019-05-17T04:55:34.439Z,16.63
2019-05-17T04:58:06.083Z,16.85
2019-05-17T05:00:35.523Z,17.14
2019-05-17T05:03:06.538Z,17.28
2019-05-17T05:05:37.281Z,17.10
2019-05-17T05:08:06.675Z,17.57
2019-05-17T05:10:38.550Z,17.88
2019-05-17T05:13:08.260Z,17.99
2019-05-17T05:15:44.424Z,17.87
2019-05-17T05:18:14.496Z,17.55
2019-05-17T05:20:45.583Z,17.43
2019-05-17T05:23:16.618Z,17.65
2019-05-17T05:25:46.193Z,18.50
2019-05-17T05:28:15.643Z,18.85
2019-05-17T05:30:46.601Z,19.26
2019-05-17T05:33:16.316Z,19.56
2019-05-17T05:35:45.739Z,19.28
2019-05-17T05:38:15.084Z,19.40
2019-05-17T05:40:44.517Z,19.79
2019-05-17T05:43:14.143Z,19.95
2019-05-17T05:45:43.566Z,20.00
2019-05-17T05:48:13.267Z,20.16
2019-05-17T05:50:43.536Z,20.15
2019-05-17T05:53:13.568Z,20.15
2019-05-17T05:55:43.396Z,20.38
2019-05-17T05:58:13.055Z,20.69
2019-05-17T06:00:43.097Z,20.69
2019-05-17T06:03:12.995Z,20.56
2019-05-17T06:05:42.707Z,21.00
2019-05-17T06:08:12.547Z,21.00
2019-05-17T06:10:42.887Z,21.09
2019-05-17T06:13:13.296Z,21.40
2019-05-17T06:15:44.879Z,21.61
2019-05-17T06:18:14.444Z,21.61
2019-05-17T06:20:44.508Z,21.91
2019-05-17T06:23:16.978Z,21.95
2019-05-17T06:25:48.725Z,21.95
2019-05-17T06:28:22.321Z,21.94
2019-05-17T06:30:52.287Z,22.05
2019-05-17T06:33:30.429Z,22.50
2019-05-17T06:35:55.536Z,22.50
2019-05-17T06:38:25.003Z,23.07
2019-05-17T06:40:54.675Z,23.03
2019-05-17T06:43:25.817Z,23.03
2019-05-17T06:45:55.540Z,23.30
2019-05-17T06:48:25.140Z,23.53
2019-05-17T06:51:02.291Z,23.53
2019-05-17T06:53:32.307Z,23.58
2019-05-17T06:56:07.547Z,23.49
2019-05-17T07:01:25.564Z,24.13
2019-05-17T07:03:55.083Z,24.13
2019-05-17T07:06:26.203Z,24.15
2019-05-17T07:08:56.659Z,24.34
2019-05-17T07:11:27.530Z,24.62
2019-05-17T07:13:56.698Z,24.97
2019-05-17T07:16:30.069Z,25.06
2019-05-17T07:19:02.296Z,24.02
2019-05-17T07:21:33.080Z,24.02
2019-05-17T07:24:03.957Z,24.53
2019-05-17T07:26:33.474Z,24.53
2019-05-17T07:29:03.528Z,24.25
2019-05-17T07:31:33.091Z,24.90
2019-05-17T07:34:02.559Z,24.97
2019-05-17T07:36:31.800Z,24.97
2019-05-17T07:39:04.163Z,25.57
2019-05-17T07:41:35.912Z,26.17
2019-05-17T07:46:45.003Z,26.52
2019-05-17T07:49:14.647Z,26.15
2019-05-17T07:51:47.007Z,26.19
2019-05-17T07:54:20.413Z,26.26
2019-05-17T07:56:50.555Z,26.44
2019-05-17T07:59:21.819Z,27.22
2019-05-17T08:01:51.229Z,27.36
2019-05-17T08:04:23.127Z,27.00
2019-05-17T08:09:55.710Z,27.03
2019-05-17T08:12:12.516Z,26.97
2019-05-17T08:14:43.456Z,26.48
2019-05-17T08:17:16.699Z,26.70
2019-05-17T08:19:49.647Z,26.99
2019-05-17T08:22:20.164Z,27.45
2019-05-17T08:24:49.457Z,27.56
2019-05-17T08:27:30.055Z,27.04
2019-05-17T08:30:02.418Z,26.90
2019-05-17T08:32:34.303Z,26.03
2019-05-17T08:35:13.742Z,26.40
2019-05-17T08:37:44.318Z,26.76
2019-05-17T08:40:15.371Z,26.05
2019-05-17T08:42:46.840Z,26.00
2019-05-17T08:45:16.393Z,26.60
2019-05-17T08:47:45.604Z,26.83
2019-05-17T08:50:20.087Z,27.12
2019-05-17T08:52:49.656Z,27.59
2019-05-17T08:55:25.546Z,27.22
2019-05-17T08:57:56.329Z,27.91
2019-05-17T09:00:27.100Z,28.02
2019-05-17T09:03:00.009Z,27.68
2019-05-17T09:05:30.251Z,26.61
2019-05-17T09:08:04.128Z,27.95
2019-05-17T09:10:34.729Z,27.41
2019-05-17T09:13:10.303Z,27.13
2019-05-17T09:15:39.750Z,27.30
2019-05-17T09:18:11.306Z,27.12
2019-05-17T09:20:49.333Z,27.47
2019-05-17T09:23:22.882Z,27.62
2019-05-17T09:25:55.079Z,27.65
2019-05-17T09:31:17.146Z,28.29
2019-05-17T09:33:49.708Z,28.06
2019-05-17T09:36:21.836Z,27.25
2019-05-17T09:38:51.187Z,28.35
2019-05-17T09:41:23.333Z,27.30
2019-05-17T09:43:52.540Z,27.82
2019-05-17T09:46:21.735Z,26.94
2019-05-17T09:48:52.531Z,26.14
2019-05-17T09:51:26.064Z,26.33
2019-05-17T09:53:55.118Z,26.91
2019-05-17T09:56:24.734Z,27.40
2019-05-17T09:58:54.026Z,27.20
2019-05-17T10:01:24.896Z,26.87
2019-05-17T10:03:54.202Z,27.27
2019-05-17T10:06:23.277Z,26.86
2019-05-17T10:08:53.934Z,27.36
2019-05-17T10:11:24.623Z,27.27
2019-05-17T10:14:01.079Z,26.52
2019-05-17T10:16:24.925Z,27.86
2019-05-17T10:21:42.288Z,28.54
2019-05-17T10:24:34.945Z,28.31
2019-05-17T10:26:51.076Z,27.97
2019-05-17T10:29:20.278Z,26.92
2019-05-17T10:31:51.442Z,26.72
2019-05-17T10:34:20.444Z,26.64
2019-05-17T10:36:51.145Z,27.44
2019-05-17T10:39:23.504Z,26.58
2019-05-17T10:41:55.821Z,26.97
2019-05-17T10:44:25.041Z,27.35
2019-05-17T10:46:55.680Z,26.97
2019-05-17T10:49:24.834Z,26.63
2019-05-17T10:51:53.974Z,25.84
2019-05-17T10:54:32.334Z,25.28
2019-05-17T10:57:04.590Z,25.28
2019-05-17T10:59:35.151Z,25.47
2019-05-17T11:02:04.700Z,25.26
2019-05-17T11:04:33.914Z,26.08
2019-05-17T11:07:04.873Z,25.41
2019-05-17T11:09:39.839Z,26.00
2019-05-17T11:12:09.878Z,25.96
2019-05-17T11:14:50.715Z,26.32
2019-05-17T11:17:15.742Z,27.28
2019-05-17T11:19:48.553Z,27.14
2019-05-17T11:22:23.232Z,27.10
2019-05-17T11:24:56.544Z,27.88
2019-05-17T11:27:31.872Z,27.34
2019-05-17T11:30:09.488Z,26.32
2019-05-17T11:32:41.007Z,26.67
2019-05-17T11:35:10.771Z,27.02
2019-05-17T11:40:38.061Z,27.88
2019-05-17T11:43:15.251Z,28.53
2019-05-17T11:45:44.399Z,26.99
2019-05-17T11:48:13.581Z,26.44
2019-05-17T11:50:44.225Z,26.14
2019-05-17T11:53:14.635Z,26.07
2019-05-17T11:55:43.886Z,25.48
2019-05-17T11:58:13.128Z,25.24
2019-05-17T12:00:42.804Z,25.56
2019-05-17T12:03:13.629Z,27.37
2019-05-17T12:05:47.677Z,27.86
2019-05-17T12:08:14.103Z,28.46
2019-05-17T12:10:43.626Z,28.58
2019-05-17T12:13:15.145Z,28.16
2019-05-17T12:15:45.735Z,27.84
2019-05-17T12:18:15.292Z,28.53
2019-05-17T12:20:46.628Z,28.58
2019-05-17T12:23:15.664Z,28.88
2019-05-17T12:25:51.108Z,28.36
2019-05-17T12:28:19.287Z,28.18
2019-05-17T12:30:51.526Z,28.18
2019-05-17T12:33:26.393Z,28.37
2019-05-17T12:36:00.077Z,28.53
2019-05-17T12:38:32.381Z,28.60
2019-05-17T12:41:04.124Z,28.07
2019-05-17T12:43:36.885Z,28.58
2019-05-17T12:46:11.052Z,28.80
2019-05-17T12:51:32.874Z,28.82
2019-05-17T12:54:03.962Z,28.87
2019-05-17T12:56:36.384Z,28.07
2019-05-17T12:59:10.403Z,27.67
2019-05-17T13:04:13.929Z,27.98
2019-05-17T13:06:43.560Z,28.16
2019-05-17T13:09:12.917Z,27.30
2019-05-17T13:11:42.235Z,27.00
2019-05-17T13:14:11.339Z,27.44
2019-05-17T13:16:42.020Z,27.70
2019-05-17T13:19:15.564Z,28.00
2019-05-17T13:21:46.404Z,27.59
2019-05-17T13:24:20.502Z,27.86
2019-05-17T13:26:49.398Z,28.00
2019-05-17T13:29:22.436Z,28.30
2019-05-17T13:31:54.358Z,27.66
2019-05-17T13:34:26.223Z,27.68
2019-05-17T13:36:55.489Z,27.68
2019-05-17T13:39:24.860Z,27.31
2019-05-17T13:41:53.989Z,27.06
2019-05-17T13:44:23.482Z,27.68
2019-05-17T13:46:55.212Z,27.54
2019-05-17T13:49:24.449Z,27.57
2019-05-17T13:51:57.812Z,28.11
2019-05-17T13:54:28.372Z,27.69
2019-05-17T13:57:06.704Z,28.18
2019-05-17T13:59:31.834Z,28.56
2019-05-17T14:02:09.883Z,27.88
2019-05-17T14:04:40.720Z,28.12
2019-05-17T14:07:11.148Z,28.03
2019-05-17T14:09:41.981Z,28.37
2019-05-17T14:12:13.448Z,28.38
2019-05-17T14:14:47.913Z,28.15
2019-05-17T14:17:17.367Z,28.25
2019-05-17T14:19:48.824Z,28.45
2019-05-17T14:22:18.281Z,27.99
2019-05-17T14:24:47.445Z,28.23
2019-05-17T14:27:16.856Z,27.79
2019-05-17T14:29:46.151Z,27.33
2019-05-17T14:32:15.369Z,27.14
2019-05-17T14:34:45.831Z,27.18
2019-05-17T14:37:15.263Z,27.66
2019-05-17T14:39:45.979Z,26.78
2019-05-17T14:42:16.613Z,27.30
2019-05-17T14:44:48.561Z,27.57
2019-05-17T14:47:17.954Z,27.75
2019-05-17T14:49:47.062Z,27.37
2019-05-17T14:52:16.361Z,27.21
2019-05-17T14:54:49.962Z,27.22
2019-05-17T14:57:22.339Z,26.35
2019-05-17T14:59:51.594Z,26.63
2019-05-17T15:02:20.890Z,26.49
2019-05-17T15:04:50.050Z,26.70
2019-05-17T15:07:19.334Z,26.17
2019-05-17T15:09:48.834Z,26.11
2019-05-17T15:12:27.807Z,26.22
2019-05-17T15:14:49.296Z,26.06
2019-05-17T15:17:18.686Z,25.99
2019-05-17T15:19:51.604Z,26.17
2019-05-17T15:22:20.923Z,25.74
2019-05-17T15:24:50.166Z,26.03
2019-05-17T15:27:19.488Z,25.64
2019-05-17T15:29:48.807Z,24.80
2019-05-17T15:32:18.064Z,24.80
2019-05-17T15:34:47.565Z,25.03
2019-05-17T15:37:17.079Z,25.03
2019-05-17T15:39:46.550Z,25.04
2019-05-17T15:42:16.046Z,25.04
2019-05-17T15:44:45.559Z,24.52
2019-05-17T15:47:15.038Z,24.30
2019-05-17T15:49:44.214Z,24.15
2019-05-17T15:52:13.793Z,24.01
2019-05-17T15:54:43.401Z,24.25
2019-05-17T15:57:12.859Z,24.25
2019-05-17T15:59:42.615Z,24.58
2019-05-17T16:02:12.294Z,24.76
2019-05-17T16:04:41.716Z,24.75
2019-05-17T16:07:10.992Z,24.88
2019-05-17T16:09:50.756Z,24.76
2019-05-17T16:12:21.506Z,24.60
2019-05-17T16:14:51.141Z,24.40
2019-05-17T16:17:22.529Z,24.17
2019-05-17T16:19:53.499Z,24.17
2019-05-17T16:22:26.066Z,24.24
2019-05-17T16:24:55.628Z,24.27
2019-05-17T16:27:25.291Z,24.29
2019-05-17T16:29:55.058Z,24.29
2019-05-17T16:32:24.535Z,24.31
2019-05-17T16:35:03.186Z,24.24
2019-05-17T16:37:32.833Z,24.18
2019-05-17T16:40:03.974Z,23.93
2019-05-17T16:42:33.523Z,23.93
2019-05-17T16:45:03.109Z,23.80
2019-05-17T16:47:32.899Z,23.52
2019-05-17T16:50:06.807Z,23.52
2019-05-17T16:52:40.653Z,23.51
2019-05-17T16:55:11.050Z,23.51
2019-05-17T16:57:40.649Z,23.50
2019-05-17T17:00:37.353Z,23.37
2019-05-17T17:03:06.916Z,23.37
2019-05-17T17:05:38.638Z,23.20
2019-05-17T17:08:08.075Z,23.04
2019-05-17T17:10:37.533Z,22.96
2019-05-17T17:13:07.343Z,22.86
2019-05-17T17:15:36.874Z,22.78
2019-05-17T17:18:06.474Z,22.56
2019-05-17T17:20:35.994Z,22.56
2019-05-17T17:23:05.460Z,22.42
2019-05-17T17:25:35.196Z,22.40
2019-05-17T17:28:06.127Z,22.32
2019-05-17T17:30:35.943Z,22.19
2019-05-17T17:33:05.448Z,22.20
2019-05-17T17:35:34.928Z,22.20
2019-05-17T17:38:04.626Z,22.12
2019-05-17T17:40:34.412Z,21.97
2019-05-17T17:43:04.547Z,21.85
2019-05-17T17:45:34.192Z,21.85
2019-05-17T17:48:03.679Z,21.56
2019-05-17T17:50:33.149Z,21.56
2019-05-17T17:53:02.694Z,21.50
2019-05-17T17:55:32.321Z,21.04
2019-05-17T17:58:01.795Z,21.45
2019-05-17T18:00:31.483Z,21.45
2019-05-17T18:03:01.020Z,21.43
2019-05-17T18:05:30.705Z,21.31
2019-05-17T18:08:00.219Z,21.31
2019-05-17T18:10:32.268Z,21.29
2019-05-17T18:13:02.438Z,21.26
2019-05-17T18:15:37.867Z,21.09
2019-05-17T18:18:07.451Z,21.01
2019-05-17T18:20:36.913Z,20.96
2019-05-17T18:23:06.516Z,20.92
2019-05-17T18:25:36.240Z,20.80
2019-05-17T18:28:06.894Z,20.78
2019-05-17T18:30:36.825Z,20.70
2019-05-17T18:33:06.527Z,20.68
2019-05-17T18:35:36.482Z,20.64
2019-05-17T18:38:06.537Z,20.70
2019-05-17T18:40:35.983Z,20.55
2019-05-17T18:43:05.722Z,20.55
2019-05-17T18:45:36.171Z,20.56
2019-05-17T18:48:05.906Z,20.37
2019-05-17T18:50:35.367Z,20.27
2019-05-17T18:53:06.122Z,20.18
2019-05-17T18:55:36.159Z,20.18
2019-05-17T18:58:05.617Z,20.08
2019-05-17T19:00:35.153Z,19.90
2019-05-17T19:03:04.614Z,19.90
2019-05-17T19:05:34.154Z,19.90
2019-05-17T19:08:03.619Z,19.85
2019-05-17T19:10:33.081Z,19.79
2019-05-17T19:13:02.536Z,19.54
2019-05-17T19:15:32.340Z,19.64
2019-05-17T19:18:02.260Z,19.67
2019-05-17T19:20:34.552Z,19.72
2019-05-17T19:23:04.077Z,19.75
2019-05-17T19:25:33.568Z,19.56
2019-05-17T19:28:03.120Z,19.69
2019-05-17T19:30:32.693Z,19.74
2019-05-17T19:33:02.402Z,19.77
2019-05-17T19:35:31.810Z,19.76
2019-05-17T19:38:01.254Z,19.77
2019-05-17T19:40:30.799Z,19.77
2019-05-17T19:43:00.297Z,19.75
2019-05-17T19:45:29.779Z,19.82
2019-05-17T19:47:59.274Z,19.84
2019-05-17T19:50:28.709Z,19.86
2019-05-17T19:52:58.221Z,19.77
2019-05-17T19:55:27.663Z,19.77
2019-05-17T19:57:57.106Z,19.75
2019-05-17T20:00:26.601Z,19.75
2019-05-17T20:02:56.105Z,19.72
2019-05-17T20:05:25.544Z,19.65
2019-05-17T20:07:55.086Z,19.49
2019-05-17T20:10:24.741Z,19.43
2019-05-17T20:12:54.206Z,19.35
2019-05-17T20:15:34.104Z,19.29
2019-05-17T20:17:54.837Z,19.34
2019-05-17T20:20:24.311Z,19.35
2019-05-17T20:22:53.943Z,19.39
2019-05-17T20:25:23.489Z,19.38
2019-05-17T20:27:53.095Z,19.30
2019-05-17T20:30:22.600Z,19.20
2019-05-17T20:32:52.061Z,19.16
2019-05-17T20:35:21.473Z,19.07
2019-05-17T20:37:50.917Z,18.97
2019-05-17T20:40:22.298Z,18.84
2019-05-17T20:42:51.768Z,18.86
2019-05-17T20:45:32.706Z,18.87
2019-05-17T20:47:52.343Z,18.87
2019-05-17T20:50:21.762Z,18.73
2019-05-17T20:52:51.092Z,18.66
2019-05-17T20:55:20.567Z,18.47
2019-05-17T20:57:50.043Z,18.43
2019-05-17T21:00:19.639Z,18.32
2019-05-17T21:02:49.103Z,18.31
2019-05-17T21:05:19.504Z,18.25
2019-05-17T21:07:49.034Z,18.25
2019-05-17T21:10:19.474Z,18.25
2019-05-17T21:12:49.022Z,18.23
2019-05-17T21:15:18.498Z,18.26
2019-05-17T21:17:47.892Z,18.23
2019-05-17T21:20:17.540Z,18.18
2019-05-17T21:22:47.437Z,18.18
2019-05-17T21:25:17.392Z,18.21
2019-05-17T21:27:46.820Z,18.20
2019-05-17T21:30:16.266Z,18.22
2019-05-17T21:32:45.821Z,18.17
2019-05-17T21:35:15.400Z,18.19
2019-05-17T21:37:44.940Z,18.19
2019-05-17T21:40:14.993Z,18.17
2019-05-17T21:42:44.427Z,18.13
2019-05-17T21:45:13.905Z,18.09
2019-05-17T21:47:45.944Z,18.03
2019-05-17T21:50:15.305Z,18.03
2019-05-17T21:52:44.883Z,18.09
2019-05-17T21:55:14.268Z,18.09
2019-05-17T21:57:43.738Z,18.11
2019-05-17T22:00:16.258Z,18.14
2019-05-17T22:02:45.767Z,18.20
2019-05-17T22:05:15.150Z,18.21
2019-05-17T22:07:44.593Z,18.17
2019-05-17T22:10:14.039Z,18.11
2019-05-17T22:12:43.504Z,18.04
2019-05-17T22:15:12.917Z,17.99
2019-05-17T22:17:42.264Z,17.99
2019-05-17T22:20:11.649Z,17.96
2019-05-17T22:22:41.073Z,17.87
2019-05-17T22:25:10.531Z,17.74
2019-05-17T22:27:39.973Z,17.70
2019-05-17T22:30:09.422Z,17.70
2019-05-17T22:32:38.861Z,17.65
2019-05-17T22:35:08.340Z,17.56
2019-05-17T22:37:38.078Z,17.54
2019-05-17T22:40:07.809Z,17.56
2019-05-17T22:42:39.364Z,17.49
2019-05-17T22:45:08.741Z,17.32
2019-05-17T22:47:38.183Z,17.36
2019-05-17T22:50:08.223Z,17.38
2019-05-17T22:52:37.663Z,17.32
2019-05-17T22:55:07.511Z,17.35
2019-05-17T22:57:36.872Z,17.31
2019-05-17T23:00:09.736Z,17.31
2019-05-17T23:02:39.229Z,17.27
2019-05-17T23:05:08.851Z,17.30
2019-05-17T23:07:38.268Z,17.21
2019-05-17T23:10:09.127Z,17.22
2019-05-17T23:12:38.535Z,17.19
2019-05-17T23:15:08.276Z,17.16
2019-05-17T23:17:37.717Z,17.11
2019-05-17T23:20:07.685Z,17.08
2019-05-17T23:22:37.145Z,17.00
2019-05-17T23:25:08.371Z,17.01
2019-05-17T23:27:37.956Z,17.00
2019-05-17T23:30:07.947Z,16.95
2019-05-17T23:32:37.404Z,16.98
2019-05-17T23:35:07.741Z,16.93
2019-05-17T23:37:37.092Z,16.92
2019-05-17T23:40:07.023Z,16.87
2019-05-17T23:42:36.437Z,16.89
2019-05-17T23:45:09.339Z,16.95
2019-05-17T23:47:38.700Z,16.93
2019-05-17T23:50:10.534Z,16.90
2019-05-17T23:52:39.976Z,16.88
2019-05-17T23:55:09.333Z,16.81
2019-05-17T23:57:38.698Z,16.79
